createdAt,value
2022-11-02T00:02:19.527Z,100624.30
2022-11-02T00:04:47.792Z,100620.41
2022-11-02T00:07:16.199Z,100619.34
2022-11-02T00:09:44.397Z,100619.67
2022-11-02T00:12:12.658Z,100618.80
2022-11-02T00:14:40.888Z,100620.94
2022-11-02T00:17:09.160Z,100619.08
2022-11-02T00:19:37.391Z,100618.49
2022-11-02T00:22:05.686Z,100620.66
2022-11-02T00:24:34.199Z,100620.23
2022-11-02T00:27:02.692Z,100617.90
2022-11-02T00:29:33.815Z,100621.84
2022-11-02T00:32:02.428Z,100623.62
2022-11-02T00:34:30.789Z,100623.77
2022-11-02T00:36:58.957Z,100626.67
2022-11-02T00:39:27.154Z,100627.20
2022-11-02T00:41:55.329Z,100630.70
2022-11-02T00:44:23.704Z,100629.63
2022-11-02T00:46:51.955Z,100630.60
2022-11-02T00:49:20.195Z,100634.38
2022-11-02T00:51:57.817Z,100632.95
2022-11-02T00:54:28.512Z,100631.33
2022-11-02T00:56:57.872Z,100632.55
2022-11-02T00:59:26.142Z,100632.13
2022-11-02T01:01:54.465Z,100635.83
2022-11-02T01:04:22.695Z,100631.88
2022-11-02T01:06:50.894Z,100635.06
2022-11-02T01:09:19.161Z,100635.63
2022-11-02T01:11:47.493Z,100640.40
2022-11-02T01:14:15.701Z,100640.43
2022-11-02T01:19:15.136Z,100633.04
2022-11-02T01:21:43.315Z,100634.16
2022-11-02T01:24:11.570Z,100631.20
2022-11-02T01:26:39.826Z,100632.85
2022-11-02T01:29:07.998Z,100634.02
2022-11-02T01:31:36.220Z,100634.34
2022-11-02T01:34:04.479Z,100631.91
2022-11-02T01:36:32.619Z,100629.05
2022-11-02T01:39:00.811Z,100633.09
2022-11-02T01:41:28.999Z,100631.02
2022-11-02T01:43:59.327Z,100629.10
2022-11-02T01:46:45.916Z,100633.63
2022-11-02T01:49:18.550Z,100635.19
2022-11-02T01:52:16.908Z,100638.14
2022-11-02T01:54:51.853Z,100636.66
2022-11-02T01:57:22.280Z,100643.67
2022-11-02T02:00:06.288Z,100648.58
2022-11-02T02:02:38.946Z,100647.70
2022-11-02T02:05:11.206Z,100649.19
2022-11-02T02:07:40.574Z,100647.77
2022-11-02T02:10:09.171Z,100644.22
2022-11-02T02:12:40.014Z,100642.92
2022-11-02T02:15:09.659Z,100637.55
2022-11-02T02:17:56.825Z,100632.64
2022-11-02T02:20:58.845Z,100633.52
2022-11-02T02:23:48.314Z,100639.49
2022-11-02T02:26:44.215Z,100638.59
2022-11-02T02:29:24.921Z,100639.42
2022-11-02T02:32:03.279Z,100643.23
2022-11-02T02:35:21.870Z,100642.74
2022-11-02T02:38:05.313Z,100644.73
2022-11-02T02:41:05.583Z,100649.17
2022-11-02T02:43:46.536Z,100646.18
2022-11-02T02:46:24.523Z,100640.85
2022-11-02T02:48:57.221Z,100643.73
2022-11-02T02:51:30.337Z,100645.90
2022-11-02T02:54:40.052Z,100643.74
2022-11-02T02:57:13.676Z,100646.42
2022-11-02T02:59:44.077Z,100643.52
2022-11-02T03:02:23.627Z,100644.02
2022-11-02T03:04:51.921Z,100651.67
2022-11-02T03:07:33.997Z,100650.83
2022-11-02T03:10:22.105Z,100647.95
2022-11-02T03:13:29.031Z,100649.27
2022-11-02T03:16:07.799Z,100654.90
2022-11-02T03:18:54.678Z,100652.48
2022-11-02T03:21:38.492Z,100653.91
2022-11-02T03:24:22.539Z,100660.25
2022-11-02T03:26:59.262Z,100657.88
2022-11-02T03:29:39.579Z,100657.23
2022-11-02T03:32:21.429Z,100658.34
2022-11-02T03:34:56.065Z,100659.94
2022-11-02T03:37:38.101Z,100660.41
2022-11-02T03:40:14.229Z,100666.90
2022-11-02T03:42:43.593Z,100669.21
2022-11-02T03:45:36.614Z,100672.91
2022-11-02T03:48:08.100Z,100669.05
2022-11-02T03:50:40.962Z,100669.89
2022-11-02T03:53:53.434Z,100670.35
2022-11-02T03:56:27.568Z,100669.89
2022-11-02T03:58:56.884Z,100669.60
2022-11-02T04:01:28.035Z,100672.45
2022-11-02T04:03:56.521Z,100669.77
2022-11-02T04:06:25.900Z,100673.27
2022-11-02T04:08:54.304Z,100671.21
2022-11-02T04:11:41.460Z,100676.54
2022-11-02T04:14:28.460Z,100676.15
2022-11-02T04:17:15.422Z,100675.81
2022-11-02T04:19:45.568Z,100672.33
2022-11-02T04:22:36.911Z,100674.55
2022-11-02T04:25:21.585Z,100673.27
2022-11-02T04:27:52.489Z,100674.64
2022-11-02T04:30:22.850Z,100676.84
2022-11-02T04:33:10.783Z,100680.41
2022-11-02T04:35:39.421Z,100680.17
2022-11-02T04:38:26.233Z,100676.84
2022-11-02T04:41:14.509Z,100677.75
2022-11-02T04:43:42.698Z,100677.86
2022-11-02T04:46:10.924Z,100680.23
2022-11-02T04:48:39.286Z,100680.70
2022-11-02T04:51:07.498Z,100679.89
2022-11-02T04:53:36.137Z,100679.72
2022-11-02T04:56:04.499Z,100676.13
2022-11-02T04:58:32.869Z,100678.83
2022-11-02T05:01:09.906Z,100676.96
2022-11-02T05:03:38.269Z,100674.91
2022-11-02T05:06:06.933Z,100678.38
2022-11-02T05:08:36.457Z,100682.02
2022-11-02T05:11:05.066Z,100683.91
2022-11-02T05:13:33.577Z,100679.08
2022-11-02T05:16:01.841Z,100679.34
2022-11-02T05:18:30.119Z,100676.98
2022-11-02T05:21:01.707Z,100679.81
2022-11-02T05:23:30.475Z,100680.23
2022-11-02T05:26:01.031Z,100682.36
2022-11-02T05:28:30.614Z,100683.10
2022-11-02T05:31:00.990Z,100681.66
2022-11-02T05:33:31.128Z,100682.27
2022-11-02T05:36:00.590Z,100681.42
2022-11-02T05:38:29.682Z,100687.84
2022-11-02T05:41:00.140Z,100688.91
2022-11-02T05:43:28.705Z,100688.11
2022-11-02T05:46:01.739Z,100685.77
2022-11-02T05:48:33.161Z,100687.08
2022-11-02T05:51:04.434Z,100687.06
2022-11-02T05:53:37.659Z,100690.26
2022-11-02T05:56:08.429Z,100691.20
2022-11-02T05:58:37.179Z,100691.33
2022-11-02T06:01:07.771Z,100695.52
2022-11-02T06:03:36.933Z,100698.13
2022-11-02T06:06:09.739Z,100696.75
2022-11-02T06:08:39.365Z,100701.67
2022-11-02T06:11:13.020Z,100699.23
2022-11-02T06:13:42.066Z,100700.75
2022-11-02T06:16:12.555Z,100700.00
2022-11-02T06:18:41.668Z,100697.54
2022-11-02T06:21:10.832Z,100698.70
2022-11-02T06:23:39.948Z,100703.01
2022-11-02T06:26:08.237Z,100705.56
2022-11-02T06:28:36.482Z,100704.14
2022-11-02T06:31:05.117Z,100703.01
2022-11-02T06:33:33.777Z,100707.14
2022-11-02T06:36:02.066Z,100710.63
2022-11-02T06:38:30.278Z,100711.81
2022-11-02T06:41:00.839Z,100713.23
2022-11-02T06:43:29.113Z,100715.53
2022-11-02T06:45:58.688Z,100711.31
2022-11-02T06:48:34.193Z,100708.39
2022-11-02T06:51:05.156Z,100709.38
2022-11-02T06:53:34.045Z,100712.77
2022-11-02T06:56:02.643Z,100714.04
2022-11-02T06:58:31.308Z,100718.45
2022-11-02T07:01:02.589Z,100725.65
2022-11-02T07:03:31.960Z,100730.27
2022-11-02T07:06:01.065Z,100732.81
2022-11-02T07:08:29.815Z,100732.79
2022-11-02T07:10:59.271Z,100731.33
2022-11-02T07:13:27.475Z,100727.06
2022-11-02T07:15:56.069Z,100732.48
2022-11-02T07:18:24.798Z,100741.63
2022-11-02T07:20:52.951Z,100743.52
2022-11-02T07:23:24.284Z,100743.70
2022-11-02T07:25:52.785Z,100743.41
2022-11-02T07:28:21.443Z,100742.77
2022-11-02T07:30:50.254Z,100749.39
2022-11-02T07:33:18.503Z,100753.02
2022-11-02T07:35:46.805Z,100754.65
2022-11-02T07:38:15.272Z,100758.13
2022-11-02T07:40:43.507Z,100768.68
2022-11-02T07:43:11.900Z,100769.02
2022-11-02T07:45:40.182Z,100775.10
2022-11-02T07:48:08.978Z,100773.80
2022-11-02T07:50:37.339Z,100769.61
2022-11-02T07:53:06.260Z,100768.42
2022-11-02T07:55:35.113Z,100771.70
2022-11-02T07:58:10.709Z,100775.01
2022-11-02T08:03:10.280Z,100777.38
